Time;durP1;ratioP1;P1;durP2;ratioP2;P2;SDS_P1;SDS_P2;PMS_P1;PMS_P2;Temp;Humidity;BMP_temperature;BMP_pressure;BME280_temperature;BME280_humidity;BME280_pressure;Samples;Min_cycle;Max_cycle;Signal;HPM_P1;HPM_P2
2022/05/01 00:00:59;;;;;;;6.18;2.92;;;;;;;11.74;48.45;101017.50;5005353;28;20111;-42
2022/05/01 00:03:42;;;;;;;7.45;2.85;;;;;;;11.74;47.45;101022.69;5004041;28;20501;-44
2022/05/01 00:06:10;;;;;;;6.35;3.17;;;;;;;11.72;47.78;101016.63;5004117;28;20057;-41
2022/05/01 00:08:39;;;;;;;9.73;2.97;;;;;;;11.70;47.74;101014.03;5001549;28;20077;-40
2022/05/01 00:11:08;;;;;;;5.03;2.42;;;;;;;11.70;47.89;101021.81;5004149;28;20050;-43
2022/05/01 00:13:42;;;;;;;5.80;2.47;;;;;;;11.67;48.33;101028.69;5000367;28;20046;-44
2022/05/01 00:16:09;;;;;;;6.60;3.22;;;;;;;11.64;48.37;101031.25;5003552;28;20057;-41
2022/05/01 00:18:37;;;;;;;6.55;2.97;;;;;;;11.61;48.38;101015.66;5006215;28;20041;-45
2022/05/01 00:21:06;;;;;;;6.78;2.80;;;;;;;11.58;49.44;101026.88;5003687;28;20047;-43
2022/05/01 00:23:34;;;;;;;6.10;3.03;;;;;;;11.56;49.08;101019.09;5000871;28;20493;-43
2022/05/01 00:26:05;;;;;;;6.05;2.95;;;;;;;11.55;49.05;101026.88;5002070;28;20087;-44
2022/05/01 00:28:35;;;;;;;7.32;3.13;;;;;;;11.52;49.74;101019.91;5000123;28;20049;-43
2022/05/01 00:31:05;;;;;;;8.38;3.17;;;;;;;11.52;49.64;101017.31;5002908;28;20045;-40
2022/05/01 00:36:38;;;;;;;9.52;3.40;;;;;;;11.47;48.89;101006.03;4993350;28;20054;-39
2022/05/01 00:39:07;;;;;;;9.60;4.20;;;;;;;11.47;48.97;100997.38;4983337;28;20533;-41
2022/05/01 00:41:37;;;;;;;7.35;3.45;;;;;;;11.47;48.98;100997.38;5002408;28;20088;-44
2022/05/01 00:44:14;;;;;;;8.02;3.78;;;;;;;11.43;49.97;101005.16;5001870;28;20053;-42
2022/05/01 00:46:45;;;;;;;9.10;3.63;;;;;;;11.46;49.25;100999.13;5005107;28;20042;-41
2022/05/01 00:49:17;;;;;;;6.35;3.13;;;;;;;11.45;49.33;100994.78;5002206;28;20494;-41
2022/05/01 00:51:47;;;;;;;6.18;3.42;;;;;;;11.45;49.68;101002.56;5001108;28;20099;-39
2022/05/01 00:54:17;;;;;;;7.25;3.72;;;;;;;11.46;49.36;100995.66;5001799;28;20727;-44
2022/05/01 00:56:47;;;;;;;5.88;2.92;;;;;;;11.45;49.49;100994.78;5000911;28;20066;-40
2022/05/01 00:59:14;;;;;;;;;;;;;;;11.31;49.42;100986.88;5002506;28;20050;-41
2022/05/01 01:01:43;;;;;;;6.18;2.83;;;;;;;11.42;49.81;100989.59;5003059;28;19921;-42
2022/05/01 01:04:10;;;;;;;7.53;3.13;;;;;;;11.40;49.89;100986.09;5001907;28;20211;-45
2022/05/01 01:06:38;;;;;;;8.93;3.97;;;;;;;11.39;50.08;100981.75;5001161;28;20053;-45
2022/05/01 01:09:05;;;;;;;7.97;3.38;;;;;;;11.37;49.39;100981.75;5002394;28;20112;-41
2022/05/01 01:11:32;;;;;;;5.63;3.72;;;;;;;11.31;50.13;100972.19;5002338;28;20148;-44
2022/05/01 01:13:59;;;;;;;6.93;3.03;;;;;;;11.27;50.75;100973.00;5002617;28;20096;-40
2022/05/01 01:16:26;;;;;;;6.50;2.88;;;;;;;11.28;49.99;100974.75;5001134;28;20126;-44
2022/05/01 01:18:53;;;;;;;7.88;3.30;;;;;;;11.28;50.55;100966.97;5006085;28;20401;-40
2022/05/01 01:21:20;;;;;;;7.35;2.90;;;;;;;11.28;50.79;100966.97;5004306;28;20046;-40
2022/05/01 01:23:47;;;;;;;8.65;3.42;;;;;;;11.27;49.91;100960.06;5001661;28;20483;-41
2022/05/01 01:26:14;;;;;;;7.68;3.45;;;;;;;11.27;50.87;100953.97;5003399;28;20390;-43
2022/05/01 01:28:42;;;;;;;7.40;3.70;;;;;;;11.26;50.73;100942.75;5005382;28;20049;-41
2022/05/01 01:34:00;;;;;;;8.52;3.58;;;;;;;11.23;51.09;100947.91;5003344;28;20196;-42
2022/05/01 01:36:28;;;;;;;7.30;3.15;;;;;;;11.23;50.85;100940.13;5004074;28;20128;-45
2022/05/01 01:38:56;;;;;;;7.50;3.05;;;;;;;11.23;50.68;100942.72;5003339;28;20073;-46
2022/05/01 01:41:26;;;;;;;7.00;3.40;;;;;;;11.21;50.53;100926.28;5007115;28;20119;-41
2022/05/01 01:43:53;;;;;;;6.95;3.38;;;;;;;11.20;51.21;100932.31;5007149;28;20119;-38
2022/05/01 01:46:20;;;;;;;8.00;3.30;;;;;;;11.17;50.29;100922.78;5005893;28;20049;-44
2022/05/01 01:48:47;;;;;;;5.43;2.67;;;;;;;11.17;50.34;100921.91;5005450;28;20050;-44
2022/05/01 01:51:14;;;;;;;8.93;3.92;;;;;;;11.15;51.04;100924.50;5008218;28;20053;-40
2022/05/01 01:53:41;;;;;;;7.30;2.88;;;;;;;11.15;51.08;100915.88;5000301;28;20100;-39
2022/05/01 01:56:08;;;;;;;7.45;3.17;;;;;;;11.14;51.07;100922.75;5002819;28;20100;-39
2022/05/01 01:58:36;;;;;;;9.02;3.28;;;;;;;11.13;51.10;100914.97;5006790;28;20769;-40
2022/05/01 02:01:06;;;;;;;7.93;3.22;;;;;;;11.09;52.43;100924.44;5004968;28;20078;-45
2022/05/01 02:03:34;;;;;;;7.70;3.28;;;;;;;11.02;52.17;100927.84;5007591;28;20042;-43
2022/05/01 02:06:04;;;;;;;6.80;3.47;;;;;;;10.95;52.32;100921.72;5003129;28;20053;-45
2022/05/01 02:08:33;;;;;;;10.48;3.25;;;;;;;10.90;53.14;100920.78;5006977;28;20196;-43
2022/05/01 02:11:03;;;;;;;7.50;3.92;;;;;;;10.86;52.72;100919.91;5006288;28;20680;-40
2022/05/01 02:13:33;;;;;;;6.85;3.40;;;;;;;10.88;53.07;100914.75;5005550;28;20125;-39
2022/05/01 02:16:00;;;;;;;7.97;3.25;;;;;;;10.87;53.10;100919.06;5002679;28;20196;-40
2022/05/01 02:18:26;;;;;;;8.27;3.55;;;;;;;10.86;52.82;100922.50;5005606;28;20058;-38
2022/05/01 02:23:40;;;;;;;7.80;3.13;;;;;;;10.86;52.88;100919.91;5003480;28;20110;-41
2022/05/01 02:26:07;;;;;;;6.35;3.38;;;;;;;10.88;53.02;100919.94;5004813;28;20057;-42
2022/05/01 02:28:33;;;;;;;7.22;3.15;;;;;;;10.88;52.30;100919.94;5004720;28;20128;-41
2022/05/01 02:31:00;;;;;;;7.43;3.53;;;;;;;10.90;52.31;100913.03;5007537;28;20053;-40
2022/05/01 02:33:27;;;;;;;9.90;3.75;;;;;;;10.91;52.62;100915.63;5002412;28;20736;-46
2022/05/01 02:35:53;;;;;;;7.93;3.17;;;;;;;10.91;52.65;100909.59;5003455;28;20045;-40
2022/05/01 02:38:20;;;;;;;7.90;3.72;;;;;;;10.90;52.92;100913.03;5005291;28;20089;-43
2022/05/01 02:40:46;;;;;;;6.68;3.30;;;;;;;10.90;52.31;100915.63;5005682;28;20477;-41
2022/05/01 02:43:13;;;;;;;5.03;2.97;;;;;;;10.89;52.65;100913.88;5005955;28;20049;-42
2022/05/01 02:45:40;;;;;;;6.85;2.83;;;;;;;10.86;52.52;100916.44;5005603;28;21980;-42
2022/05/01 02:48:07;;;;;;;8.73;3.67;;;;;;;10.84;52.93;100910.38;5006975;28;20049;-39
2022/05/01 02:50:34;;;;;;;9.02;2.95;;;;;;;10.79;52.80;100910.34;5006177;28;20092;-41
2022/05/01 02:53:04;;;;;;;8.10;3.22;;;;;;;10.76;53.00;100903.41;5008440;28;20050;-40
2022/05/01 02:55:32;;;;;;;10.48;4.63;;;;;;;10.75;53.38;100905.97;5004043;28;20498;-44
2022/05/01 02:57:58;;;;;;;5.97;3.25;;;;;;;10.73;53.44;100911.13;4998301;28;20681;-41
2022/05/01 03:00:26;;;;;;;6.30;2.80;;;;;;;10.71;53.17;100905.06;5020998;28;20053;-39
2022/05/01 03:02:57;;;;;;;8.98;3.30;;;;;;;10.69;53.20;100911.06;5006662;28;20057;-44
2022/05/01 03:05:24;;;;;;;6.97;3.40;;;;;;;10.69;53.29;100904.19;5002504;28;20050;-40
2022/05/01 03:07:51;;;;;;;6.70;3.13;;;;;;;10.65;53.72;100908.47;5006051;28;20058;-40
2022/05/01 03:10:17;;;;;;;7.95;3.40;;;;;;;10.65;53.60;100902.41;5001184;28;20633;-39
2022/05/01 03:12:43;;;;;;;7.10;3.28;;;;;;;10.65;53.28;100907.59;5006524;28;20065;-45
2022/05/01 03:15:09;;;;;;;6.63;4.47;;;;;;;10.65;53.63;100902.41;5002781;28;20520;-44
2022/05/01 03:23:09;;;;;;;8.63;3.40;;;;;;;10.60;53.78;100898.91;5002229;28;20116;-43
2022/05/01 03:25:35;;;;;;;7.50;4.00;;;;;;;10.58;54.22;100885.06;4986469;28;20116;-40
2022/05/01 03:28:02;;;;;;;6.95;3.30;;;;;;;10.58;53.94;100891.13;4985901;28;20097;-42
2022/05/01 03:30:29;;;;;;;6.40;3.70;;;;;;;10.56;53.99;100882.47;4992761;28;20073;-41
2022/05/01 03:32:55;;;;;;;6.30;2.85;;;;;;;10.57;53.82;100883.34;5002430;28;20050;-39
2022/05/01 03:35:22;;;;;;;7.80;3.10;;;;;;;10.58;54.22;100874.72;5004015;28;20138;-43
2022/05/01 03:37:50;;;;;;;6.22;2.60;;;;;;;10.58;53.81;100874.72;5004874;28;20057;-40
2022/05/01 03:40:17;;;;;;;5.10;2.42;;;;;;;10.59;53.10;100864.38;5004615;28;20121;-42
2022/05/01 03:42:44;;;;;;;8.20;2.80;;;;;;;10.59;53.38;100866.06;5003468;28;20050;-40
2022/05/01 03:45:10;;;;;;;8.23;2.90;;;;;;;10.59;52.71;100863.47;5003375;28;20061;-41
2022/05/01 03:47:37;;;;;;;5.15;2.38;;;;;;;10.59;53.35;100858.31;5006195;28;20046;-45
2022/05/01 03:50:05;;;;;;;6.38;2.90;;;;;;;10.60;53.06;100858.31;5002071;28;20053;-43
2022/05/01 03:52:34;;;;;;;6.18;2.83;;;;;;;10.59;53.19;100860.88;5005604;28;20065;-44
2022/05/01 03:55:00;;;;;;;5.45;2.53;;;;;;;10.59;52.94;100860.88;4999564;28;20553;-42
2022/05/01 03:57:33;;;;;;;7.03;2.60;;;;;;;10.57;53.20;100857.44;5001232;28;20046;-41
2022/05/01 04:00:00;;;;;;;5.13;2.30;;;;;;;10.54;52.88;100853.94;4999034;28;20046;-46
2022/05/01 04:02:27;;;;;;;4.78;2.63;;;;;;;10.54;53.10;100853.09;4987655;28;20042;-41
2022/05/01 04:04:53;;;;;;;6.38;2.85;;;;;;;10.52;52.62;100855.66;5003439;28;20058;-39
2022/05/01 04:07:20;;;;;;;5.97;2.75;;;;;;;10.52;53.40;100858.25;4987904;28;20351;-41
2022/05/01 04:09:47;;;;;;;9.98;3.40;;;;;;;10.50;53.16;100852.19;4987120;28;20054;-42
2022/05/01 04:12:15;;;;;;;7.72;2.97;;;;;;;10.48;53.07;100848.72;4986581;28;20082;-44
2022/05/01 04:14:41;;;;;;;8.32;2.92;;;;;;;10.47;53.30;100851.28;4985504;28;20042;-41
2022/05/01 04:17:08;;;;;;;4.85;2.72;;;;;;;10.45;53.05;100851.28;4984823;28;20053;-41
2022/05/01 04:19:34;;;;;;;6.75;2.80;;;;;;;10.43;53.20;100854.66;4985136;28;20050;-42
2022/05/01 04:22:01;;;;;;;6.78;2.63;;;;;;;10.43;53.30;100839.97;4985367;28;20108;-43
2022/05/01 04:24:28;;;;;;;6.18;2.92;;;;;;;10.40;53.57;100846.00;4984836;28;20046;-41
2022/05/01 04:26:55;;;;;;;6.57;3.10;;;;;;;10.40;53.64;100837.34;4985465;28;20100;-42
2022/05/01 04:29:37;;;;;;;6.45;3.13;;;;;;;10.38;53.52;100842.53;4985042;28;20089;-39
2022/05/01 04:32:05;;;;;;;8.25;3.40;;;;;;;10.36;54.14;100838.16;4986869;28;20050;-41
2022/05/01 04:34:32;;;;;;;5.18;2.70;;;;;;;10.35;53.64;100841.63;4986120;28;20045;-43
2022/05/01 04:36:59;;;;;;;6.57;3.35;;;;;;;10.35;53.70;100837.31;4982687;28;20046;-40
2022/05/01 04:39:26;;;;;;;8.20;3.15;;;;;;;10.34;54.07;100839.88;4986104;28;20049;-39
2022/05/01 04:41:53;;;;;;;6.10;2.60;;;;;;;10.33;54.38;100839.00;4967308;28;20100;-39
2022/05/01 04:44:20;;;;;;;6.07;2.50;;;;;;;10.33;53.91;100832.97;4986575;28;20056;-42
2022/05/01 04:46:49;;;;;;;10.60;2.85;;;;;;;10.33;54.32;100843.34;4979475;28;20125;-40
2022/05/01 04:49:20;;;;;;;6.82;3.03;;;;;;;10.31;54.09;100845.91;4997360;28;20038;-41
2022/05/01 04:51:47;;;;;;;8.30;3.70;;;;;;;10.32;54.10;100846.75;5002272;28;20100;-43
2022/05/01 04:54:14;;;;;;;8.85;3.03;;;;;;;10.32;53.83;100849.34;5003868;28;20054;-44
2022/05/01 04:59:27;;;;;;;6.75;2.45;;;;;;;10.32;53.74;100857.13;4988884;28;20548;-40
2022/05/01 05:01:54;;;;;;;5.13;2.70;;;;;;;10.31;53.52;100847.63;5000580;28;20076;-44
2022/05/01 05:04:21;;;;;;;4.85;2.30;;;;;;;10.28;53.14;100849.34;5000448;28;20077;-40
2022/05/01 05:06:52;;;;;;;7.90;2.38;;;;;;;10.28;52.75;100851.94;5003520;28;20038;-41
2022/05/01 05:12:07;;;;;;;4.35;1.75;;;;;;;10.26;52.64;100853.63;5000517;28;20048;-43
2022/05/01 05:14:33;;;;;;;5.68;1.80;;;;;;;10.26;52.83;100861.38;5007797;28;20485;-39
2022/05/01 05:17:01;;;;;;;4.35;1.75;;;;;;;10.26;52.81;100863.09;5005341;28;20061;-41
2022/05/01 05:19:27;;;;;;;3.97;1.77;;;;;;;10.26;51.96;100858.78;5006648;28;20066;-43
2022/05/01 05:21:54;;;;;;;6.75;1.83;;;;;;;10.27;52.37;100865.69;5009282;28;20042;-45
2022/05/01 05:24:22;;;;;;;5.03;2.60;;;;;;;10.29;52.43;100861.44;5007142;28;20437;-41
2022/05/01 05:26:49;;;;;;;5.53;2.67;;;;;;;10.29;52.28;100866.59;5006729;28;20398;-41
2022/05/01 05:29:15;;;;;;;5.93;2.55;;;;;;;10.31;52.88;100863.16;5006648;28;20116;-40
2022/05/01 05:31:42;;;;;;;7.28;2.10;;;;;;;10.31;52.43;100870.94;5007744;28;20042;-42
2022/05/01 05:34:09;;;;;;;5.70;1.88;;;;;;;10.31;52.16;100863.16;5005719;28;20482;-42
2022/05/01 05:36:36;;;;;;;4.68;2.13;;;;;;;10.31;52.78;100860.56;5006024;28;20046;-41
2022/05/01 05:39:03;;;;;;;6.78;2.50;;;;;;;10.32;52.75;100862.28;5006740;28;20070;-41
2022/05/01 05:41:29;;;;;;;6.53;2.40;;;;;;;10.31;52.41;100861.44;5005359;28;20065;-40
2022/05/01 05:43:56;;;;;;;5.30;1.77;;;;;;;10.33;52.20;100877.00;5006525;28;20112;-40
2022/05/01 05:46:27;;;;;;;5.13;2.53;;;;;;;10.34;52.73;100865.78;5003691;28;20737;-41
2022/05/01 05:48:54;;;;;;;6.55;2.63;;;;;;;10.35;52.51;100870.97;5005781;28;21624;-43
2022/05/01 05:51:21;;;;;;;6.43;2.55;;;;;;;10.37;52.06;100865.81;5007023;28;20068;-41
2022/05/01 05:53:50;;;;;;;10.70;4.43;;;;;;;10.40;52.74;100873.59;5003060;28;20498;-44
2022/05/01 05:56:18;;;;;;;17.08;6.60;;;;;;;10.43;52.67;100870.22;5006888;28;20045;-43
2022/05/01 05:58:45;;;;;;;9.75;4.30;;;;;;;10.47;52.65;100877.19;5007162;28;20046;-40
2022/05/01 06:01:12;;;;;;;7.97;2.78;;;;;;;10.48;52.99;100879.81;5003085;28;20054;-40
2022/05/01 06:03:40;;;;;;;6.55;2.92;;;;;;;10.50;52.46;100875.50;5004100;28;20046;-43
2022/05/01 06:06:07;;;;;;;5.20;2.15;;;;;;;10.48;52.18;100869.44;5005764;28;20046;-42
2022/05/01 06:08:36;;;;;;;4.88;2.05;;;;;;;10.50;52.66;100883.25;5004435;28;20057;-43
2022/05/01 06:11:02;;;;;;;4.97;2.90;;;;;;;10.45;52.12;100873.69;5005898;28;20097;-42
2022/05/01 06:13:29;;;;;;;4.32;1.92;;;;;;;10.46;51.99;100875.44;5003710;28;20057;-42
2022/05/01 06:15:57;;;;;;;4.40;1.40;;;;;;;10.45;52.14;100879.75;5004814;28;20120;-40
2022/05/01 06:18:24;;;;;;;4.43;1.88;;;;;;;10.43;51.63;100878.81;4998426;28;20461;-42
2022/05/01 06:20:51;;;;;;;2.75;1.10;;;;;;;10.45;51.76;100877.16;4986346;28;20046;-40
2022/05/01 06:23:22;;;;;;;3.15;1.27;;;;;;;10.45;51.59;100879.75;5001597;28;20105;-39
2022/05/01 06:25:50;;;;;;;6.32;2.83;;;;;;;10.45;52.15;100879.75;5002702;28;20430;-40
2022/05/01 06:28:17;;;;;;;5.45;1.52;;;;;;;10.44;52.12;100883.19;5005535;28;20049;-41
2022/05/01 06:30:45;;;;;;;4.25;1.50;;;;;;;10.41;51.62;100883.97;4992139;28;20050;-45
2022/05/01 06:33:15;;;;;;;3.00;1.17;;;;;;;10.41;51.92;100877.97;4970852;28;20058;-45
2022/05/01 06:35:44;;;;;;;2.60;1.10;;;;;;;10.42;51.68;100877.09;4987112;28;20082;-37
2022/05/01 06:38:10;;;;;;;2.75;1.10;;;;;;;10.46;52.04;100881.50;4982868;28;20058;-42
2022/05/01 06:40:38;;;;;;;3.20;1.00;;;;;;;10.54;52.11;100874.66;4984050;28;20096;-42
2022/05/01 06:43:07;;;;;;;3.88;1.35;;;;;;;10.63;52.08;100883.38;4987282;28;20085;-43
2022/05/01 06:45:34;;;;;;;2.88;1.77;;;;;;;10.66;51.99;100867.88;4989130;28;20450;-44
2022/05/01 06:48:01;;;;;;;5.68;1.70;;;;;;;10.75;52.02;100861.94;4989839;28;20039;-44
2022/05/01 06:50:29;;;;;;;4.03;1.90;;;;;;;10.85;52.88;100858.56;4989574;28;20097;-44
2022/05/01 06:52:55;;;;;;;3.45;1.67;;;;;;;10.91;52.25;100862.94;4981878;28;20058;-42
2022/05/01 06:55:25;;;;;;;4.07;1.52;;;;;;;10.96;52.81;100856.06;4976679;28;20043;-40
2022/05/01 06:57:52;;;;;;;5.50;1.98;;;;;;;11.03;52.58;100852.69;4994404;28;20045;-41
2022/05/01 07:00:20;;;;;;;8.60;4.13;;;;;;;11.06;52.75;100851.84;4999797;28;20454;-42
2022/05/01 07:02:49;;;;;;;9.52;3.13;;;;;;;11.08;51.54;100851.84;5002662;28;20050;-41
2022/05/01 07:05:17;;;;;;;12.85;4.25;;;;;;;11.10;51.94;100852.72;5001404;28;20061;-41
2022/05/01 07:07:44;;;;;;;9.00;2.72;;;;;;;11.14;52.50;100852.75;5001151;28;20105;-43
2022/05/01 07:10:11;;;;;;;8.98;3.15;;;;;;;11.20;52.73;100844.16;5001604;28;20124;-41
2022/05/01 07:12:38;;;;;;;16.02;4.63;;;;;;;11.25;52.84;100847.63;5002428;28;20045;-40
2022/05/01 07:15:06;;;;;;;9.02;3.05;;;;;;;11.27;52.02;100845.94;4997235;28;20103;-41
2022/05/01 07:17:33;;;;;;;10.18;4.13;;;;;;;11.30;52.52;100845.97;5001168;28;20109;-44
2022/05/01 07:20:00;;;;;;;12.30;4.22;;;;;;;11.37;52.77;100846.00;5002743;28;20064;-41
2022/05/01 07:22:26;;;;;;;6.30;2.20;;;;;;;11.43;52.62;100846.03;5003668;28;20510;-41
2022/05/01 07:24:53;;;;;;;10.73;3.63;;;;;;;11.49;52.32;100846.09;5000458;28;20042;-39
2022/05/01 07:27:20;;;;;;;6.28;2.35;;;;;;;11.50;52.90;100847.81;5003773;28;20438;-40
2022/05/01 07:29:46;;;;;;;7.30;1.98;;;;;;;11.50;52.75;100852.13;5006226;28;20137;-41
2022/05/01 07:32:13;;;;;;;6.80;2.95;;;;;;;11.50;52.27;100847.81;5005672;28;20061;-42
2022/05/01 07:34:40;;;;;;;4.68;2.35;;;;;;;11.52;51.69;100846.09;4999159;28;20054;-44
2022/05/01 07:37:07;;;;;;;6.22;1.98;;;;;;;11.46;51.82;100835.69;5001871;28;20041;-43
2022/05/01 07:39:34;;;;;;;8.82;2.10;;;;;;;11.46;52.51;100842.59;5002663;28;20746;-44
2022/05/01 07:42:00;;;;;;;4.88;2.05;;;;;;;11.52;52.87;100850.44;5005946;28;20077;-41
2022/05/01 07:44:27;;;;;;;4.63;1.98;;;;;;;11.50;52.71;100845.22;5006384;28;20506;-42
2022/05/01 07:46:54;;;;;;;5.30;2.10;;;;;;;11.53;52.75;100853.03;5002823;28;20045;-38
2022/05/01 07:49:21;;;;;;;4.28;1.85;;;;;;;11.55;52.75;100846.13;5006226;28;20104;-43
2022/05/01 07:51:48;;;;;;;5.75;2.03;;;;;;;11.56;52.48;100847.00;5007502;28;20100;-43
2022/05/01 07:54:14;;;;;;;8.30;2.72;;;;;;;11.59;52.12;100857.41;5006187;28;20081;-43
2022/05/01 07:56:44;;;;;;;23.83;7.85;;;;;;;11.64;53.02;100854.81;5007277;28;20046;-44
2022/05/01 07:59:11;;;;;;;7.80;2.45;;;;;;;11.67;53.07;100854.84;5006100;28;20104;-43
2022/05/01 08:01:38;;;;;;;9.55;3.40;;;;;;;11.74;52.80;100856.59;5006111;28;20049;-39
2022/05/01 08:06:52;;;;;;;7.90;2.10;;;;;;;11.94;52.51;100858.44;4991474;28;20050;-44
2022/05/01 08:09:19;;;;;;;5.55;2.38;;;;;;;12.05;53.10;100859.34;5004229;28;20123;-44
2022/05/01 08:11:46;;;;;;;6.28;2.40;;;;;;;12.19;53.56;100858.56;4996939;28;20128;-43
2022/05/01 08:14:12;;;;;;;5.28;2.00;;;;;;;12.34;52.60;100863.78;5004323;28;20075;-45
2022/05/01 08:16:40;;;;;;;5.43;2.20;;;;;;;12.46;52.30;100862.09;5003929;28;20049;-43
2022/05/01 08:21:53;;;;;;;5.00;1.85;;;;;;;12.63;51.76;100863.88;4999239;28;20042;-42
2022/05/01 08:24:20;;;;;;;6.15;2.15;;;;;;;12.75;51.68;100858.72;5001420;28;20116;-41
2022/05/01 08:26:48;;;;;;;4.10;1.50;;;;;;;12.94;51.73;100853.53;5003313;28;20092;-41
2022/05/01 08:29:15;;;;;;;8.18;3.55;;;;;;;13.17;52.44;100855.25;5002352;28;20163;-40
2022/05/01 08:31:47;;;;;;;4.50;2.10;;;;;;;13.40;51.00;100859.59;5002950;28;20113;-41
2022/05/01 08:34:14;;;;;;;6.25;2.30;;;;;;;13.66;50.73;100843.94;4998015;28;20049;-46
2022/05/01 08:36:41;;;;;;;10.43;3.15;;;;;;;13.88;50.72;100844.72;4999541;28;20604;-41
2022/05/01 08:39:09;;;;;;;7.57;3.30;;;;;;;14.06;50.80;100848.13;5000412;28;20050;-44
2022/05/01 08:41:35;;;;;;;5.05;2.17;;;;;;;14.20;51.48;100841.97;4999715;28;20049;-42
2022/05/01 08:44:03;;;;;;;4.72;1.67;;;;;;;14.31;50.13;100844.53;4998451;28;20050;-44
2022/05/01 08:49:26;;;;;;;3.85;1.73;;;;;;;14.13;50.04;100842.03;5120172;27;20554;-45
2022/05/01 08:51:55;;;;;;;3.70;1.48;;;;;;;14.07;50.53;100844.66;5108042;27;20048;-41
2022/05/01 08:54:22;;;;;;;3.97;1.77;;;;;;;13.86;50.03;100846.47;5117708;27;20096;-40
2022/05/01 08:56:49;;;;;;;4.97;2.00;;;;;;;13.69;51.08;100849.13;5114073;27;20480;-41
2022/05/01 08:59:17;;;;;;;4.55;2.30;;;;;;;13.65;51.50;100846.53;5113359;28;20043;-39
2022/05/01 09:01:45;;;;;;;4.63;2.38;;;;;;;13.53;51.31;100852.63;5108709;28;20101;-43
2022/05/01 09:04:14;;;;;;;5.78;2.13;;;;;;;13.43;52.33;100852.63;5111438;27;20056;-40
2022/05/01 09:06:43;;;;;;;5.18;2.53;;;;;;;13.34;51.24;100853.50;5111085;28;20067;-41
2022/05/01 09:09:17;;;;;;;6.70;3.25;;;;;;;13.19;52.72;100845.72;5112152;28;20498;-45
2022/05/01 09:14:31;;;;;;;10.02;3.85;;;;;;;13.11;53.20;100856.97;5112081;28;20059;-39
2022/05/01 09:17:21;;;;;;;6.55;3.08;;;;;;;13.02;53.63;100862.19;5110688;28;20059;-43
2022/05/01 09:19:51;;;;;;;7.47;2.55;;;;;;;13.08;52.66;100862.16;5109430;28;20050;-41
2022/05/01 09:22:20;;;;;;;5.95;2.25;;;;;;;13.02;53.66;100861.31;5109102;27;20071;-39
2022/05/01 09:24:54;;;;;;;7.75;3.75;;;;;;;12.99;53.28;100854.38;5093178;28;20051;-42
2022/05/01 09:27:37;;;;;;;5.32;2.05;;;;;;;12.93;54.41;100864.78;5095527;28;20479;-41
2022/05/01 09:32:47;;;;;;;4.75;3.22;;;;;;;12.74;54.89;100856.97;5010195;28;20411;-39
2022/05/01 09:37:51;;;;;;;4.97;2.25;;;;;;;12.72;54.01;100863.91;5022617;27;20402;-42
2022/05/01 09:40:33;;;;;;;3.60;1.90;;;;;;;12.68;54.60;100869.94;5016541;28;20054;-40
2022/05/01 09:43:00;;;;;;;;;;;;;;;12.56;54.94;100865.59;5029757;28;20054;-41
2022/05/01 09:45:31;;;;;;;5.20;1.88;;;;;;;12.66;55.24;100864.75;5034669;28;19921;-40
2022/05/01 09:48:19;;;;;;;4.38;1.67;;;;;;;12.62;55.13;100857.81;5026679;28;21932;-41
2022/05/01 09:51:15;;;;;;;10.32;4.63;;;;;;;12.65;56.16;100859.53;5035957;28;20052;-41
2022/05/01 09:53:42;;;;;;;4.40;1.70;;;;;;;12.72;55.80;100848.31;5019914;28;20486;-43
2022/05/01 09:56:09;;;;;;;3.22;1.95;;;;;;;12.77;55.98;100853.50;5022519;28;20049;-40
2022/05/01 09:58:40;;;;;;;6.80;2.10;;;;;;;12.84;56.23;100860.44;5019777;28;20045;-40
2022/05/01 10:01:09;;;;;;;4.32;2.42;;;;;;;12.97;55.93;100863.94;5016612;28;20050;-40
2022/05/01 10:03:39;;;;;;;;;;;;;;;12.94;55.00;100856.97;5016882;28;20500;-41
2022/05/01 10:06:10;;;;;;;6.15;2.40;;;;;;;13.07;55.39;100857.84;5019044;28;19928;-42
2022/05/01 10:08:39;;;;;;;7.75;3.10;;;;;;;13.13;55.44;100850.94;5017028;28;20045;-45
2022/05/01 10:11:06;;;;;;;7.00;3.30;;;;;;;13.11;53.73;100851.78;5017847;28;20085;-40
2022/05/01 10:13:34;;;;;;;8.23;3.25;;;;;;;13.07;55.36;100855.25;5019951;28;20080;-41
2022/05/01 10:16:06;;;;;;;7.05;3.47;;;;;;;13.09;54.93;100852.66;5019245;28;20054;-41
2022/05/01 10:18:34;;;;;;;7.30;3.38;;;;;;;13.06;54.17;100853.53;5019614;28;20049;-41
2022/05/01 10:21:02;;;;;;;9.88;4.60;;;;;;;13.14;55.31;100855.25;5019317;28;20049;-43
2022/05/01 10:23:30;;;;;;;6.90;3.10;;;;;;;13.16;54.72;100853.50;5044912;28;20049;-46
2022/05/01 10:26:19;;;;;;;10.50;3.88;;;;;;;13.04;55.55;100850.03;5042975;28;20762;-47
2022/05/01 10:32:20;;;;;;;6.70;3.38;;;;;;;13.03;55.33;100853.50;5043488;28;20041;-40
2022/05/01 10:43:53;;;;;;;9.27;5.13;;;;;;;13.24;55.42;100846.56;5010625;28;20407;-41
2022/05/01 10:51:42;;;;;;;9.55;4.82;;;;;;;13.40;56.70;100841.38;5047759;27;20398;-45
2022/05/01 10:56:49;;;;;;;10.43;5.97;;;;;;;13.55;56.18;100833.56;5052020;27;20387;-43
2022/05/01 11:02:24;;;;;;;9.68;5.65;;;;;;;13.79;56.68;100833.47;5045533;28;20400;-42
2022/05/01 11:04:53;;;;;;;9.15;4.68;;;;;;;13.92;57.04;100829.09;5023981;28;20041;-42
2022/05/01 11:07:21;;;;;;;9.73;4.75;;;;;;;14.07;55.76;100836.84;5024431;28;20052;-42
2022/05/01 11:09:49;;;;;;;6.72;4.03;;;;;;;14.20;55.92;100831.56;5024185;28;20632;-40
2022/05/01 11:12:19;;;;;;;7.80;4.38;;;;;;;14.29;55.85;100833.25;5024375;28;20046;-40
2022/05/01 11:15:08;;;;;;;6.65;3.67;;;;;;;14.26;56.18;100837.59;5025274;28;20464;-45
2022/05/01 11:25:38;;;;;;;7.00;4.65;;;;;;;14.14;55.06;100829.84;5034235;27;20398;-38
2022/05/01 11:28:05;;;;;;;10.98;5.30;;;;;;;14.17;55.95;100831.56;5020341;28;20116;-42
2022/05/01 11:41:42;;;;;;;8.95;6.07;;;;;;;14.07;56.20;100823.81;5045002;27;20888;-41
2022/05/01 11:44:24;;;;;;;8.77;6.43;;;;;;;14.08;56.58;100827.28;5023745;28;20146;-46
2022/05/01 11:46:52;;;;;;;9.70;6.32;;;;;;;14.12;56.90;100822.03;5024743;28;20084;-42
2022/05/01 11:49:19;;;;;;;8.85;6.53;;;;;;;14.09;56.11;100827.25;5024086;28;20033;-41
2022/05/01 11:51:47;;;;;;;9.70;6.97;;;;;;;14.10;56.25;100823.81;5023597;28;20049;-44
2022/05/01 11:54:15;;;;;;;11.18;7.97;;;;;;;14.16;57.24;100816.81;5021201;28;20041;-45
2022/05/01 12:02:26;;;;;;;9.63;6.43;;;;;;;14.07;57.62;100802.97;5021073;28;20108;-45
2022/05/01 12:04:59;;;;;;;39.10;12.90;;;;;;;14.13;58.02;100805.56;5022804;28;20056;-40
2022/05/01 12:07:26;;;;;;;18.40;8.75;;;;;;;14.18;57.41;100795.09;5018654;28;20498;-43
2022/05/01 12:09:54;;;;;;;35.60;10.60;;;;;;;14.25;57.81;100801.13;5018239;28;20619;-41
2022/05/01 12:12:28;;;;;;;8.95;6.10;;;;;;;14.25;57.34;100799.41;5023665;28;20100;-39
2022/05/01 12:14:55;;;;;;;8.90;5.18;;;;;;;14.33;57.59;100791.53;5024029;28;20076;-43
2022/05/01 12:17:22;;;;;;;16.60;7.65;;;;;;;14.41;57.75;100791.47;5024880;28;20469;-45
2022/05/01 12:19:58;;;;;;;22.52;8.27;;;;;;;14.53;57.70;100795.75;5023034;28;20121;-46
2022/05/01 12:22:30;;;;;;;20.50;8.57;;;;;;;14.61;58.15;100793.06;5019578;28;20053;-42
2022/05/01 12:25:01;;;;;;;12.10;5.55;;;;;;;14.68;57.56;100793.88;5001998;28;20625;-42
2022/05/01 12:27:30;;;;;;;8.20;3.78;;;;;;;14.64;57.30;100793.94;5002740;28;20429;-42
2022/05/01 12:30:01;;;;;;;17.02;8.32;;;;;;;14.63;57.75;100791.34;5003421;28;20046;-43
2022/05/01 12:32:29;;;;;;;8.75;5.55;;;;;;;14.60;57.64;100787.00;5004522;28;20057;-49
2022/05/01 12:34:57;;;;;;;6.95;4.47;;;;;;;14.56;57.30;100789.66;5003808;28;20057;-40
2022/05/01 12:37:32;;;;;;;6.28;4.57;;;;;;;14.55;57.55;100794.00;5003533;28;20681;-41
2022/05/01 12:40:10;;;;;;;11.52;5.88;;;;;;;14.57;57.38;100781.81;5003843;28;20077;-46
2022/05/01 12:45:44;;;;;;;14.43;7.05;;;;;;;14.46;57.77;100784.47;5002123;28;20147;-47
2022/05/01 12:48:13;;;;;;;8.70;5.55;;;;;;;14.52;57.91;100783.56;5003800;28;20077;-44
2022/05/01 12:50:43;;;;;;;6.47;4.70;;;;;;;14.49;57.56;100778.41;5002278;28;20050;-46
2022/05/01 12:56:17;;;;;;;5.30;2.70;;;;;;;14.56;57.80;100780.06;5017310;27;20411;-40
2022/05/01 12:58:43;;;;;;;5.45;3.10;;;;;;;14.70;57.51;100781.72;5018618;28;20041;-43
2022/05/01 13:01:23;;;;;;;13.57;5.07;;;;;;;14.82;57.80;100771.22;5017160;28;20524;-42